createdAt,value
2022-12-10T00:01:18.907Z,24.40
2022-12-10T00:03:48.354Z,27.27
2022-12-10T00:06:18.138Z,27.03
2022-12-10T00:08:46.302Z,30.50
2022-12-10T00:11:16.192Z,34.50
2022-12-10T00:13:45.500Z,30.10
2022-12-10T00:16:15.393Z,31.80
2022-12-10T00:18:43.922Z,29.10
2022-12-10T00:21:15.122Z,27.83
2022-12-10T00:23:43.326Z,27.77
2022-12-10T00:26:13.048Z,25.30
2022-12-10T00:28:41.534Z,28.07
2022-12-10T00:31:11.346Z,28.50
2022-12-10T00:33:39.823Z,28.10
2022-12-10T00:36:09.762Z,26.27
2022-12-10T00:38:39.553Z,31.77
2022-12-10T00:41:07.679Z,25.27
2022-12-10T00:43:35.878Z,27.73
2022-12-10T00:46:04.292Z,26.50
2022-12-10T00:48:32.805Z,28.93
2022-12-10T00:51:02.624Z,27.47
2022-12-10T00:53:32.745Z,27.17
2022-12-10T00:56:02.630Z,27.80
2022-12-10T00:58:31.444Z,35.17
2022-12-10T01:01:09.128Z,36.97
2022-12-10T01:03:37.505Z,36.60
2022-12-10T01:06:13.902Z,31.67
2022-12-10T01:08:42.217Z,45.07
2022-12-10T01:11:12.409Z,33.87
2022-12-10T01:13:41.044Z,28.30
2022-12-10T01:16:14.634Z,26.03
2022-12-10T01:18:42.932Z,28.03
2022-12-10T01:21:13.257Z,28.37
2022-12-10T01:23:46.815Z,29.13
2022-12-10T01:26:18.125Z,31.30
2022-12-10T01:28:46.694Z,31.80
2022-12-10T01:31:17.171Z,36.23
2022-12-10T01:33:45.250Z,33.77
2022-12-10T01:36:15.815Z,29.60
2022-12-10T01:38:44.485Z,33.30
2022-12-10T01:41:18.133Z,30.67
2022-12-10T01:43:55.672Z,28.57
2022-12-10T01:46:25.137Z,32.17
2022-12-10T01:48:53.679Z,35.23
2022-12-10T01:51:22.296Z,31.70
2022-12-10T01:53:50.595Z,28.93
2022-12-10T01:56:21.047Z,33.13
2022-12-10T01:58:50.878Z,34.73
2022-12-10T02:01:27.385Z,34.10
2022-12-10T02:04:06.262Z,39.50
2022-12-10T02:06:46.220Z,32.00
2022-12-10T02:09:22.537Z,33.87
2022-12-10T02:12:01.139Z,30.37
2022-12-10T02:14:37.671Z,29.90
2022-12-10T02:17:14.060Z,30.83
2022-12-10T02:20:06.221Z,33.77
2022-12-10T02:22:38.123Z,32.47
2022-12-10T02:25:08.953Z,34.83
2022-12-10T02:27:45.001Z,33.53
2022-12-10T02:30:14.528Z,31.20
2022-12-10T02:32:45.591Z,31.57
2022-12-10T02:35:18.542Z,30.43
2022-12-10T02:37:51.393Z,32.17
2022-12-10T02:40:24.488Z,32.10
2022-12-10T02:42:53.599Z,31.87
2022-12-10T02:45:25.381Z,32.20
2022-12-10T02:47:55.640Z,32.47
2022-12-10T02:50:24.009Z,27.17
2022-12-10T02:52:51.946Z,32.97
2022-12-10T02:55:21.278Z,29.00
2022-12-10T02:58:08.544Z,31.27
2022-12-10T03:00:44.526Z,35.03
2022-12-10T03:03:30.435Z,32.73
2022-12-10T03:06:03.618Z,28.90
2022-12-10T03:08:36.842Z,29.03
2022-12-10T03:11:11.683Z,28.67
2022-12-10T03:13:45.124Z,32.67
2022-12-10T03:16:15.749Z,35.83
2022-12-10T03:18:45.649Z,31.67
2022-12-10T03:21:15.024Z,28.93
2022-12-10T03:23:46.014Z,30.83
2022-12-10T03:26:14.786Z,32.30
2022-12-10T03:28:48.886Z,34.97
2022-12-10T03:31:20.280Z,31.07
2022-12-10T03:33:49.584Z,30.63
2022-12-10T03:36:18.963Z,29.73
2022-12-10T03:38:46.784Z,30.80
2022-12-10T03:41:14.783Z,30.70
2022-12-10T03:43:53.432Z,29.20
2022-12-10T03:46:23.563Z,33.10
2022-12-10T03:48:51.943Z,32.00
2022-12-10T03:51:19.811Z,33.80
2022-12-10T03:53:49.747Z,29.43
2022-12-10T03:56:17.946Z,35.53
2022-12-10T03:58:45.796Z,31.97
2022-12-10T04:01:13.815Z,34.93
2022-12-10T04:03:44.204Z,30.77
2022-12-10T04:06:18.052Z,32.50
2022-12-10T04:08:46.327Z,37.67
2022-12-10T04:11:15.469Z,30.10
2022-12-10T04:14:01.114Z,35.20
2022-12-10T04:16:30.693Z,33.97
2022-12-10T04:19:02.063Z,40.10
2022-12-10T04:21:48.956Z,42.00
2022-12-10T04:24:35.028Z,61.93
2022-12-10T04:27:08.319Z,39.83
2022-12-10T04:29:36.171Z,39.73
2022-12-10T04:32:04.440Z,42.20
2022-12-10T04:34:33.853Z,37.07
2022-12-10T04:37:03.210Z,41.03
2022-12-10T04:39:31.037Z,36.47
2022-12-10T04:41:59.556Z,44.00
2022-12-10T04:44:27.389Z,43.30
2022-12-10T04:46:55.422Z,40.23
2022-12-10T04:49:23.688Z,38.90
2022-12-10T04:51:53.670Z,41.17
2022-12-10T04:54:21.971Z,42.13
2022-12-10T04:56:50.090Z,60.80
2022-12-10T04:59:18.639Z,40.63
2022-12-10T05:01:47.051Z,57.53
2022-12-10T05:04:18.545Z,44.17
2022-12-10T05:06:47.335Z,53.47
2022-12-10T05:09:17.014Z,50.57
2022-12-10T05:11:45.931Z,42.80
2022-12-10T05:14:14.772Z,43.67
2022-12-10T05:16:43.174Z,49.10
2022-12-10T05:19:12.623Z,70.80
2022-12-10T05:21:57.916Z,59.57
2022-12-10T05:24:27.406Z,62.03
2022-12-10T05:26:55.262Z,54.50
2022-12-10T05:29:23.110Z,56.27
2022-12-10T05:31:50.928Z,68.10
2022-12-10T05:34:18.766Z,75.67
2022-12-10T05:36:46.639Z,50.30
2022-12-10T05:39:14.514Z,62.20
2022-12-10T05:41:44.911Z,66.50
2022-12-10T05:44:13.137Z,52.10
2022-12-10T05:46:41.312Z,72.23
2022-12-10T05:49:09.909Z,65.43
2022-12-10T05:51:39.550Z,65.17
2022-12-10T05:54:11.303Z,57.73
2022-12-10T05:56:39.573Z,62.83
2022-12-10T05:59:14.827Z,66.37
2022-12-10T06:01:44.665Z,53.87
2022-12-10T06:04:13.037Z,40.07
2022-12-10T06:06:42.092Z,68.07
2022-12-10T06:09:14.082Z,61.67
2022-12-10T06:11:42.571Z,72.70
2022-12-10T06:14:12.544Z,58.20
2022-12-10T06:16:42.508Z,78.93
2022-12-10T06:19:10.423Z,103.73
2022-12-10T06:21:38.263Z,95.83
2022-12-10T06:24:06.447Z,85.27
2022-12-10T06:26:34.286Z,132.37
2022-12-10T06:29:02.303Z,93.43
2022-12-10T06:31:31.726Z,87.27
2022-12-10T06:33:59.609Z,83.67
2022-12-10T06:36:28.023Z,81.03
2022-12-10T06:38:55.944Z,49.80
2022-12-10T06:41:23.853Z,81.13
2022-12-10T06:43:51.827Z,89.43
2022-12-10T06:46:22.129Z,131.87
2022-12-10T06:48:51.392Z,80.87
2022-12-10T06:51:20.345Z,70.00
2022-12-10T06:53:48.710Z,130.83
2022-12-10T06:56:18.336Z,81.63
2022-12-10T06:58:46.459Z,80.97
2022-12-10T07:01:15.901Z,62.10
2022-12-10T07:03:44.298Z,111.93
2022-12-10T07:06:13.869Z,74.87
2022-12-10T07:08:41.728Z,82.40
2022-12-10T07:11:11.609Z,82.97
2022-12-10T07:13:40.024Z,69.03
2022-12-10T07:16:15.211Z,58.40
2022-12-10T07:18:47.404Z,63.90
2022-12-10T07:21:20.816Z,65.20
2022-12-10T07:23:48.878Z,57.03
2022-12-10T07:26:16.858Z,56.67
2022-12-10T07:28:52.608Z,59.80
2022-12-10T07:31:22.447Z,48.47
2022-12-10T07:33:50.747Z,62.70
2022-12-10T07:36:20.531Z,49.80
2022-12-10T07:38:48.368Z,54.83
2022-12-10T07:41:16.576Z,42.23
2022-12-10T07:43:45.800Z,43.93
2022-12-10T07:46:16.213Z,51.80
2022-12-10T07:48:45.058Z,51.33
2022-12-10T07:51:13.462Z,40.50
2022-12-10T07:53:43.879Z,49.70
2022-12-10T07:56:12.510Z,41.80
2022-12-10T07:58:43.587Z,45.50
2022-12-10T08:01:13.274Z,37.77
2022-12-10T08:03:41.940Z,42.10
2022-12-10T08:06:11.470Z,42.77
2022-12-10T08:08:40.592Z,43.27
2022-12-10T08:11:10.259Z,46.63
2022-12-10T08:13:38.502Z,44.70
2022-12-10T08:16:08.965Z,44.63
2022-12-10T08:18:37.022Z,47.20
2022-12-10T08:21:06.672Z,46.40
2022-12-10T08:23:34.765Z,53.13
2022-12-10T08:26:06.160Z,46.13
2022-12-10T08:28:35.412Z,39.00
2022-12-10T08:31:04.614Z,39.57
2022-12-10T08:33:34.675Z,43.67
2022-12-10T08:36:02.889Z,56.60
2022-12-10T08:38:31.269Z,48.30
2022-12-10T08:40:59.426Z,45.93
2022-12-10T08:43:27.458Z,51.93
2022-12-10T08:45:59.782Z,44.90
2022-12-10T08:48:27.660Z,43.20
2022-12-10T08:50:55.483Z,42.73
2022-12-10T08:53:23.496Z,38.00
2022-12-10T08:55:52.663Z,41.73
2022-12-10T08:58:20.557Z,47.10
2022-12-10T09:00:48.736Z,41.20
2022-12-10T09:03:18.336Z,50.67
2022-12-10T09:05:46.266Z,54.10
2022-12-10T09:08:14.089Z,44.80
2022-12-10T09:10:43.050Z,50.27
2022-12-10T09:13:11.731Z,39.80
2022-12-10T09:15:39.636Z,39.00
2022-12-10T09:18:07.462Z,41.33
2022-12-10T09:20:38.924Z,36.27
2022-12-10T09:23:06.769Z,42.10
2022-12-10T09:25:34.611Z,40.00
2022-12-10T09:28:02.495Z,36.07
2022-12-10T09:30:30.444Z,36.50
2022-12-10T09:32:59.169Z,41.87
2022-12-10T09:35:27.002Z,38.03
2022-12-10T09:37:56.180Z,34.07
2022-12-10T09:40:35.102Z,34.00
2022-12-10T09:43:12.210Z,38.87
2022-12-10T09:45:55.842Z,38.50
2022-12-10T09:48:31.846Z,34.33
2022-12-10T09:51:07.242Z,35.87
2022-12-10T09:53:39.897Z,37.57
2022-12-10T09:56:16.550Z,38.33
2022-12-10T09:58:44.385Z,33.90
2022-12-10T10:01:15.466Z,35.73
2022-12-10T10:03:47.053Z,34.83
2022-12-10T10:06:17.796Z,32.90
2022-12-10T10:08:49.681Z,34.13
2022-12-10T10:11:21.206Z,34.00
2022-12-10T10:13:53.526Z,33.50
2022-12-10T10:16:26.811Z,32.53
2022-12-10T10:18:59.963Z,33.40
2022-12-10T10:21:30.310Z,29.40
2022-12-10T10:23:59.660Z,29.53
2022-12-10T10:26:27.913Z,32.30
2022-12-10T10:28:59.592Z,39.10
2022-12-10T10:31:29.324Z,32.27
2022-12-10T10:33:59.220Z,36.53
2022-12-10T10:36:29.811Z,34.07
2022-12-10T10:39:08.838Z,36.00
2022-12-10T10:41:40.688Z,31.27
2022-12-10T10:44:17.924Z,31.53
2022-12-10T10:46:47.752Z,37.97
2022-12-10T10:49:23.806Z,31.50
2022-12-10T10:51:51.966Z,31.80
2022-12-10T10:54:35.715Z,30.00
2022-12-10T10:57:06.574Z,38.13
2022-12-10T10:59:37.487Z,30.73
2022-12-10T11:02:17.680Z,30.73
2022-12-10T11:04:51.669Z,32.33
2022-12-10T11:07:27.414Z,32.70
2022-12-10T11:09:57.173Z,30.70
2022-12-10T11:12:46.636Z,32.70
2022-12-10T11:15:35.802Z,32.13
2022-12-10T11:18:16.857Z,29.23
2022-12-10T11:20:59.234Z,27.60
2022-12-10T11:23:30.330Z,27.17
2022-12-10T11:26:11.978Z,24.83
2022-12-10T11:28:57.001Z,24.63
2022-12-10T11:31:38.238Z,24.80
2022-12-10T11:34:14.114Z,26.63
2022-12-10T11:36:54.237Z,30.93
2022-12-10T11:39:35.766Z,31.17
2022-12-10T11:42:12.527Z,33.80
2022-12-10T11:44:49.340Z,27.30
2022-12-10T11:47:30.024Z,24.67
2022-12-10T11:50:10.908Z,27.93
2022-12-10T11:52:48.807Z,23.53
2022-12-10T11:55:25.816Z,26.40
2022-12-10T11:58:08.318Z,25.10
2022-12-10T12:00:43.953Z,23.67
2022-12-10T12:03:33.607Z,24.57
2022-12-10T12:06:19.866Z,19.23
2022-12-10T12:08:54.113Z,21.63
2022-12-10T12:11:53.244Z,22.73
2022-12-10T12:14:26.820Z,25.63
2022-12-10T12:17:03.804Z,24.60
2022-12-10T12:19:38.003Z,24.03
2022-12-10T12:22:15.100Z,25.60
2022-12-10T12:24:46.424Z,27.13
2022-12-10T12:27:24.466Z,28.87
2022-12-10T12:30:03.619Z,31.13
2022-12-10T12:32:37.204Z,27.87
2022-12-10T12:35:11.934Z,28.37
2022-12-10T12:37:46.181Z,30.57
2022-12-10T12:40:18.883Z,27.50
2022-12-10T12:42:54.486Z,33.23
2022-12-10T12:45:32.423Z,28.53
2022-12-10T12:48:08.183Z,28.40
2022-12-10T12:50:43.225Z,28.20
2022-12-10T12:53:15.767Z,28.77
2022-12-10T12:55:53.956Z,30.13
2022-12-10T12:58:38.887Z,32.37
2022-12-10T13:01:21.085Z,28.60
2022-12-10T13:03:51.507Z,29.60
2022-12-10T13:06:24.073Z,29.20
2022-12-10T13:08:59.203Z,27.73
2022-12-10T13:11:33.755Z,28.93
2022-12-10T13:14:13.906Z,27.00
2022-12-10T13:17:03.595Z,24.90
2022-12-10T13:19:33.709Z,25.93
2022-12-10T13:22:13.893Z,28.40
2022-12-10T13:25:02.933Z,23.50
2022-12-10T13:27:34.701Z,23.27
2022-12-10T13:30:05.672Z,25.37
2022-12-10T13:32:49.066Z,22.27
2022-12-10T13:35:32.603Z,19.03
2022-12-10T13:38:07.285Z,23.73
2022-12-10T13:41:01.862Z,22.13
2022-12-10T13:44:06.422Z,23.17
2022-12-10T13:46:36.638Z,19.97
2022-12-10T13:49:07.731Z,22.13
2022-12-10T13:51:48.235Z,21.73
2022-12-10T13:54:32.744Z,20.20
2022-12-10T13:57:11.154Z,17.87
2022-12-10T13:59:47.518Z,20.27
2022-12-10T14:02:38.878Z,21.30
2022-12-10T14:05:29.174Z,19.83
2022-12-10T14:07:59.832Z,17.50
2022-12-10T14:10:33.089Z,17.00
2022-12-10T14:13:02.539Z,15.80
2022-12-10T14:15:30.939Z,9.90
2022-12-10T14:18:04.814Z,13.13
2022-12-10T14:20:36.143Z,12.90
2022-12-10T14:23:20.535Z,14.23
2022-12-10T14:25:49.242Z,14.23
2022-12-10T14:28:19.306Z,13.57
2022-12-10T14:30:49.284Z,19.23
2022-12-10T14:33:20.250Z,22.77
2022-12-10T14:35:51.235Z,15.97
2022-12-10T14:38:22.151Z,19.57
2022-12-10T14:40:50.509Z,18.53
2022-12-10T14:43:22.321Z,16.93
2022-12-10T14:45:54.791Z,14.97
2022-12-10T14:48:22.685Z,18.73
2022-12-10T14:50:52.343Z,17.30
2022-12-10T14:53:28.534Z,20.00
2022-12-10T14:56:01.427Z,21.63
2022-12-10T14:58:41.450Z,23.63
2022-12-10T15:01:17.068Z,18.03
2022-12-10T15:03:48.082Z,16.03
2022-12-10T15:06:19.971Z,17.57
2022-12-10T15:08:48.931Z,15.93
2022-12-10T15:11:19.438Z,18.27
2022-12-10T15:13:51.156Z,19.33
2022-12-10T15:16:20.486Z,18.77
2022-12-10T15:18:48.938Z,29.27
2022-12-10T15:21:22.460Z,53.33
2022-12-10T15:23:50.748Z,18.77
2022-12-10T15:26:22.591Z,17.27
2022-12-10T15:28:52.491Z,17.00
2022-12-10T15:31:24.483Z,19.87
2022-12-10T15:33:55.245Z,17.47
2022-12-10T15:36:33.498Z,18.30
2022-12-10T15:39:05.302Z,16.47
2022-12-10T15:41:42.068Z,17.90
2022-12-10T15:44:21.459Z,19.30
2022-12-10T15:46:50.576Z,16.37
2022-12-10T15:49:18.428Z,19.07
2022-12-10T15:51:47.688Z,16.73
2022-12-10T15:54:28.837Z,19.27
2022-12-10T15:56:56.653Z,20.20
2022-12-10T15:59:24.466Z,19.77
2022-12-10T16:01:52.307Z,18.97
2022-12-10T16:04:20.144Z,29.33
2022-12-10T16:06:49.324Z,40.20
2022-12-10T16:09:17.136Z,48.30
2022-12-10T16:11:44.974Z,33.10
2022-12-10T16:14:14.181Z,24.13
2022-12-10T16:16:42.368Z,19.23
2022-12-10T16:19:13.295Z,18.67
2022-12-10T16:21:41.997Z,20.00
2022-12-10T16:24:11.252Z,18.40
2022-12-10T16:26:39.131Z,20.60
2022-12-10T16:29:06.953Z,19.63
2022-12-10T16:31:34.936Z,21.40
2022-12-10T16:34:02.798Z,20.43
2022-12-10T16:36:31.924Z,20.47
2022-12-10T16:38:59.780Z,19.73
2022-12-10T16:41:30.706Z,20.73
2022-12-10T16:43:58.581Z,17.13
2022-12-10T16:46:26.575Z,23.77
2022-12-10T16:48:54.475Z,19.67
2022-12-10T16:51:25.242Z,21.47
2022-12-10T16:53:53.345Z,21.20
2022-12-10T16:56:21.172Z,20.77
2022-12-10T16:58:50.368Z,19.53
2022-12-10T17:01:21.171Z,22.30
2022-12-10T17:03:49.868Z,19.37
2022-12-10T17:06:18.453Z,23.17
2022-12-10T17:08:46.566Z,23.80
2022-12-10T17:11:37.971Z,22.20
2022-12-10T17:14:08.375Z,19.00
2022-12-10T17:16:36.240Z,23.57
2022-12-10T17:19:04.078Z,23.93
2022-12-10T17:21:37.063Z,27.30
2022-12-10T17:24:06.798Z,44.37
2022-12-10T17:26:37.914Z,27.47
2022-12-10T17:29:13.431Z,28.43
2022-12-10T17:31:41.323Z,23.20
2022-12-10T17:34:10.746Z,25.57
2022-12-10T17:36:38.604Z,23.73
2022-12-10T17:39:06.877Z,28.37
2022-12-10T17:41:34.843Z,33.70
2022-12-10T17:44:02.655Z,27.33
2022-12-10T17:46:31.930Z,32.33
2022-12-10T17:49:00.900Z,30.73
2022-12-10T17:51:28.840Z,27.10
2022-12-10T17:53:57.070Z,28.83
2022-12-10T17:56:28.874Z,26.13
2022-12-10T17:58:57.088Z,24.13
2022-12-10T18:01:27.269Z,25.57
2022-12-10T18:03:56.800Z,28.87
2022-12-10T18:06:27.278Z,27.70
2022-12-10T18:08:56.154Z,33.13
2022-12-10T18:11:26.835Z,31.20
2022-12-10T18:13:54.667Z,29.73
2022-12-10T18:16:28.177Z,28.93
2022-12-10T18:18:58.018Z,23.03
2022-12-10T18:21:26.691Z,32.17
2022-12-10T18:23:54.724Z,30.77
2022-12-10T18:26:25.936Z,31.30
2022-12-10T18:28:55.237Z,29.40
2022-12-10T18:31:26.354Z,28.93
2022-12-10T18:33:57.591Z,30.37
2022-12-10T18:36:29.456Z,25.17
2022-12-10T18:38:59.332Z,25.33
2022-12-10T18:41:27.692Z,34.37
2022-12-10T18:43:55.685Z,28.23
2022-12-10T18:46:26.148Z,30.27
2022-12-10T18:48:55.252Z,30.03
2022-12-10T18:51:23.921Z,32.07
2022-12-10T18:53:53.260Z,30.73
2022-12-10T18:56:24.198Z,27.80
2022-12-10T18:58:52.587Z,29.57
2022-12-10T19:01:23.257Z,26.43
2022-12-10T19:03:51.238Z,31.33
2022-12-10T19:06:20.774Z,29.47
2022-12-10T19:09:10.403Z,29.93
2022-12-10T19:11:38.220Z,30.17
2022-12-10T19:14:06.093Z,26.20
2022-12-10T19:16:34.104Z,31.10
2022-12-10T19:19:05.163Z,28.50
2022-12-10T19:21:33.325Z,29.87
2022-12-10T19:24:01.165Z,28.73
2022-12-10T19:26:32.724Z,35.60
2022-12-10T19:29:03.430Z,30.90
2022-12-10T19:31:31.659Z,32.03
2022-12-10T19:33:59.493Z,33.43
2022-12-10T19:36:29.979Z,29.17
2022-12-10T19:38:58.284Z,31.20
2022-12-10T19:41:26.689Z,27.60
2022-12-10T19:43:54.547Z,27.23
2022-12-10T19:46:25.430Z,26.50
2022-12-10T19:48:54.237Z,30.63
2022-12-10T19:51:24.550Z,32.10
2022-12-10T19:53:55.376Z,33.43
2022-12-10T19:56:27.021Z,29.23
2022-12-10T19:58:56.769Z,28.53
2022-12-10T20:01:27.097Z,25.23
2022-12-10T20:03:55.930Z,26.60
2022-12-10T20:06:30.561Z,32.33
2022-12-10T20:08:59.645Z,24.23
2022-12-10T20:11:28.297Z,34.63
2022-12-10T20:13:56.230Z,29.97
2022-12-10T20:16:28.730Z,38.27
2022-12-10T20:18:58.171Z,34.00
2022-12-10T20:21:27.462Z,43.37
2022-12-10T20:24:02.670Z,31.87
2022-12-10T20:26:33.250Z,26.30
2022-12-10T20:29:01.947Z,29.30
2022-12-10T20:31:31.282Z,26.27
2022-12-10T20:33:59.696Z,26.80
2022-12-10T20:36:28.671Z,29.87
2022-12-10T20:38:56.498Z,25.93
2022-12-10T20:41:24.357Z,54.70
2022-12-10T20:43:52.180Z,24.97
2022-12-10T20:46:24.030Z,29.23
2022-12-10T20:48:53.894Z,23.83
2022-12-10T20:51:21.802Z,24.30
2022-12-10T20:53:49.688Z,21.50
2022-12-10T20:56:19.546Z,26.80
2022-12-10T20:58:47.877Z,27.07
2022-12-10T21:01:16.031Z,27.90
2022-12-10T21:03:44.242Z,22.13
2022-12-10T21:06:15.886Z,25.80
2022-12-10T21:08:43.812Z,24.97
2022-12-10T21:11:11.754Z,23.13
2022-12-10T21:13:39.706Z,23.30
2022-12-10T21:16:08.910Z,26.53
2022-12-10T21:18:36.907Z,20.60
2022-12-10T21:21:05.133Z,21.73
2022-12-10T21:23:34.419Z,22.60
2022-12-10T21:26:02.229Z,23.53
2022-12-10T21:28:30.133Z,25.83
2022-12-10T21:30:58.034Z,25.30
2022-12-10T21:33:27.059Z,21.63
2022-12-10T21:35:55.273Z,23.83
2022-12-10T21:38:23.447Z,17.93
2022-12-10T21:40:54.392Z,21.50
2022-12-10T21:43:24.219Z,30.20
2022-12-10T21:45:53.767Z,21.57
2022-12-10T21:48:23.655Z,21.10
2022-12-10T21:50:58.225Z,35.97
2022-12-10T21:53:26.214Z,35.63
2022-12-10T21:55:55.547Z,34.90
2022-12-10T21:58:23.651Z,42.00
2022-12-10T22:00:56.698Z,26.73
2022-12-10T22:03:25.459Z,23.40
2022-12-10T22:05:53.327Z,29.97
2022-12-10T22:08:21.616Z,25.83
2022-12-10T22:10:50.724Z,26.23
2022-12-10T22:13:20.447Z,25.83
2022-12-10T22:15:48.587Z,23.83
2022-12-10T22:18:17.253Z,26.30
2022-12-10T22:20:45.349Z,22.73
2022-12-10T22:23:15.491Z,24.73
2022-12-10T22:25:43.865Z,28.13
2022-12-10T22:28:11.722Z,24.50
2022-12-10T22:30:42.333Z,30.30
2022-12-10T22:33:10.999Z,28.87
2022-12-10T22:35:40.393Z,25.57
2022-12-10T22:38:08.409Z,21.67
2022-12-10T22:40:36.419Z,26.37
2022-12-10T22:43:26.513Z,29.40
2022-12-10T22:45:56.677Z,27.33
2022-12-10T22:48:25.353Z,28.33
2022-12-10T22:51:01.314Z,26.77
2022-12-10T22:53:29.459Z,24.83
2022-12-10T22:56:01.360Z,32.57
2022-12-10T22:58:30.118Z,26.70
2022-12-10T23:01:00.205Z,24.93
2022-12-10T23:03:28.997Z,23.97
2022-12-10T23:05:56.978Z,25.47
2022-12-10T23:08:25.897Z,26.43
2022-12-10T23:10:53.842Z,27.77
2022-12-10T23:13:22.292Z,25.03
2022-12-10T23:15:52.181Z,26.73
2022-12-10T23:18:22.570Z,24.20
2022-12-10T23:20:50.917Z,24.60
2022-12-10T23:23:18.907Z,30.00
2022-12-10T23:25:46.967Z,24.10
2022-12-10T23:28:15.331Z,30.27
2022-12-10T23:30:43.563Z,27.13
2022-12-10T23:33:11.563Z,25.20
2022-12-10T23:35:42.622Z,27.13
2022-12-10T23:38:10.852Z,24.13
2022-12-10T23:40:41.031Z,27.17
2022-12-10T23:43:08.984Z,29.83
2022-12-10T23:45:36.951Z,30.83
2022-12-10T23:48:05.218Z,28.93
2022-12-10T23:50:33.106Z,26.10
2022-12-10T23:53:03.839Z,25.87
2022-12-10T23:55:31.723Z,25.80
2022-12-10T23:57:59.547Z,23.97
